NOZ81E ENBO-ENGM
Flight info
| Callsign | NOZ81E |
|---|---|
| Flight time | N/A |
| Altitude | 34000 |
| Route | DISMU DCT SOMUB/N0452F350 DCT ABUNO DCT INREX |
| Aircraft | B738/M-SDE2E3FGHIRWXY/LB1 |
Departure
| Time | 2026-04-25 12:43 |
|---|---|
| Airport | Bodø Airport (ENBO) |
Arrival
| Time | N/A |
|---|---|
| Airport | Oslo-Gardermoen International Airport (ENGM) |
| Time | Latitude | Longitude | Altitude | Speed | Heading |
|---|---|---|---|---|---|
| 2026-04-25 11:45 | 67.27187 | 14.36949 | 41 ft | 0 kts | 296° |
| 2026-04-25 12:27 | 67.27186 | 14.36954 | 40 ft | 2 kts | 296° |
| 2026-04-25 12:28 | 67.27176 | 14.37017 | 38 ft | 3 kts | 283° |
| 2026-04-25 12:28 | 67.27173 | 14.37084 | 37 ft | 4 kts | 263° |
| 2026-04-25 12:28 | 67.27181 | 14.37146 | 39 ft | 4 kts | 224° |
| 2026-04-25 12:28 | 67.27197 | 14.37166 | 37 ft | 0 kts | 168° |
| 2026-04-25 12:40 | 67.27174 | 14.37178 | 40 ft | 8 kts | 168° |
| 2026-04-25 12:40 | 67.27118 | 14.37260 | 42 ft | 10 kts | 111° |
| 2026-04-25 12:40 | 67.27124 | 14.37443 | 42 ft | 11 kts | 78° |
| 2026-04-25 12:40 | 67.27139 | 14.37627 | 43 ft | 10 kts | 78° |
| 2026-04-25 12:41 | 67.27149 | 14.37745 | 43 ft | 10 kts | 78° |
| 2026-04-25 12:41 | 67.27159 | 14.37978 | 44 ft | 10 kts | 88° |
| 2026-04-25 12:41 | 67.27160 | 14.38093 | 44 ft | 10 kts | 88° |
| 2026-04-25 12:41 | 67.27149 | 14.38311 | 44 ft | 9 kts | 121° |
| 2026-04-25 12:42 | 67.27112 | 14.38364 | 44 ft | 9 kts | 173° |
| 2026-04-25 12:42 | 67.27077 | 14.38311 | 43 ft | 9 kts | 234° |
| 2026-04-25 12:42 | 67.27043 | 14.37966 | 45 ft | 48 kts | 257° |
| 2026-04-25 12:42 | 67.26903 | 14.36286 | 39 ft | 139 kts | 258° |
| 2026-04-25 12:43 | 67.26663 | 14.33367 | 529 ft | 182 kts | 262° |
| 2026-04-25 12:43 | 67.26395 | 14.29958 | 1397 ft | 200 kts | 263° |
| 2026-04-25 12:43 | 67.25624 | 14.22814 | 2693 ft | 221 kts | 234° |
| 2026-04-25 12:44 | 67.24411 | 14.20296 | 3358 ft | 230 kts | 218° |
| 2026-04-25 12:44 | 67.23075 | 14.17935 | 4064 ft | 232 kts | 219° |
| 2026-04-25 12:44 | 67.20321 | 14.12957 | 5117 ft | 256 kts | 219° |
| 2026-04-25 12:45 | 67.18868 | 14.10279 | 5772 ft | 263 kts | 219° |
| 2026-04-25 12:45 | 67.17350 | 14.07456 | 6512 ft | 272 kts | 219° |
| 2026-04-25 12:45 | 67.14226 | 14.01611 | 8250 ft | 281 kts | 220° |
| 2026-04-25 12:46 | 67.12631 | 13.98625 | 9138 ft | 285 kts | 220° |
| 2026-04-25 12:46 | 67.11001 | 13.95705 | 9985 ft | 292 kts | 212° |
| 2026-04-25 12:46 | 67.09058 | 13.93925 | 10821 ft | 298 kts | 198° |
| 2026-04-25 12:46 | 67.07036 | 13.92580 | 11664 ft | 302 kts | 197° |
| 2026-04-25 12:47 | 67.05016 | 13.91249 | 12479 ft | 305 kts | 197° |
| 2026-04-25 12:47 | 67.02948 | 13.89869 | 13326 ft | 308 kts | 198° |
| 2026-04-25 12:47 | 67.00854 | 13.88450 | 14098 ft | 312 kts | 198° |
| 2026-04-25 12:47 | 66.98690 | 13.86964 | 14446 ft | 333 kts | 198° |
| 2026-04-25 12:48 | 66.96404 | 13.85386 | 14662 ft | 354 kts | 198° |
| 2026-04-25 12:48 | 66.93962 | 13.83701 | 15134 ft | 366 kts | 198° |
| 2026-04-25 12:48 | 66.91478 | 13.81992 | 15834 ft | 371 kts | 198° |
| 2026-04-25 12:48 | 66.89006 | 13.80152 | 16573 ft | 374 kts | 202° |
| 2026-04-25 12:49 | 66.86553 | 13.77837 | 17344 ft | 377 kts | 201° |
| 2026-04-25 12:49 | 66.84004 | 13.75975 | 18082 ft | 383 kts | 198° |
| 2026-04-25 12:49 | 66.81417 | 13.74337 | 18662 ft | 388 kts | 197° |
| 2026-04-25 12:49 | 66.78774 | 13.72740 | 19316 ft | 392 kts | 196° |
| 2026-04-25 12:50 | 66.76100 | 13.71131 | 19962 ft | 394 kts | 197° |
| 2026-04-25 12:50 | 66.73451 | 13.69519 | 20541 ft | 399 kts | 197° |
| 2026-04-25 12:50 | 66.70736 | 13.67842 | 21128 ft | 403 kts | 197° |
| 2026-04-25 12:50 | 66.67993 | 13.66131 | 21710 ft | 407 kts | 197° |
| 2026-04-25 12:51 | 66.65248 | 13.64409 | 22310 ft | 410 kts | 197° |
| 2026-04-25 12:51 | 66.62461 | 13.62659 | 22900 ft | 414 kts | 197° |
| 2026-04-25 12:51 | 66.59646 | 13.60888 | 23450 ft | 418 kts | 197° |
| 2026-04-25 12:51 | 66.56807 | 13.59102 | 23867 ft | 422 kts | 197° |
| 2026-04-25 12:52 | 66.53943 | 13.57307 | 24272 ft | 426 kts | 197° |
| 2026-04-25 12:52 | 66.51052 | 13.55496 | 24699 ft | 430 kts | 197° |
| 2026-04-25 12:52 | 66.48138 | 13.53673 | 25111 ft | 433 kts | 197° |
| 2026-04-25 12:52 | 66.45225 | 13.51857 | 25552 ft | 436 kts | 197° |
| 2026-04-25 12:53 | 66.42253 | 13.50009 | 25974 ft | 439 kts | 197° |
| 2026-04-25 12:53 | 66.39273 | 13.48161 | 26418 ft | 441 kts | 197° |
| 2026-04-25 12:53 | 66.36278 | 13.46308 | 26850 ft | 444 kts | 197° |
| 2026-04-25 12:53 | 66.33266 | 13.44450 | 27273 ft | 446 kts | 197° |
| 2026-04-25 12:54 | 66.30273 | 13.42609 | 27696 ft | 448 kts | 197° |
| 2026-04-25 12:54 | 66.27234 | 13.40742 | 28136 ft | 450 kts | 197° |
| 2026-04-25 12:54 | 66.24179 | 13.38872 | 28559 ft | 452 kts | 197° |
| 2026-04-25 12:54 | 66.21121 | 13.37004 | 28805 ft | 458 kts | 197° |
| 2026-04-25 12:55 | 66.17969 | 13.35075 | 28150 ft | 481 kts | 197° |
| 2026-04-25 12:55 | 66.15795 | 13.33748 | 27558 ft | 483 kts | 196° |
| 2026-04-25 12:55 | 66.11519 | 13.31163 | 27470 ft | 472 kts | 196° |